sensor_id;sensor_type;location;lat;lon;timestamp;temperature;humidity
67890;DHT22;54685;52.082;5.426;2023-02-21T00:00:35;8.30;99.90
67890;DHT22;54685;52.082;5.426;2023-02-21T00:03:20;8.30;99.90
67890;DHT22;54685;52.082;5.426;2023-02-21T00:06:07;8.30;99.90
67890;DHT22;54685;52.082;5.426;2023-02-21T00:08:53;8.30;99.90
67890;DHT22;54685;52.082;5.426;2023-02-21T00:11:43;8.30;99.90
67890;DHT22;54685;52.082;5.426;2023-02-21T00:14:29;8.30;99.90
67890;DHT22;54685;52.082;5.426;2023-02-21T00:17:14;8.30;99.90
67890;DHT22;54685;52.082;5.426;2023-02-21T00:20:00;8.30;99.90
67890;DHT22;54685;52.082;5.426;2023-02-21T00:22:45;8.30;99.90
67890;DHT22;54685;52.082;5.426;2023-02-21T00:25:30;8.30;99.90
67890;DHT22;54685;52.082;5.426;2023-02-21T00:28:15;8.30;99.90
67890;DHT22;54685;52.082;5.426;2023-02-21T00:31:03;8.30;99.90
67890;DHT22;54685;52.082;5.426;2023-02-21T00:33:50;8.30;99.90
67890;DHT22;54685;52.082;5.426;2023-02-21T00:36:35;8.30;99.90
67890;DHT22;54685;52.082;5.426;2023-02-21T00:39:22;8.30;99.90
67890;DHT22;54685;52.082;5.426;2023-02-21T00:42:07;8.30;99.90
67890;DHT22;54685;52.082;5.426;2023-02-21T00:44:53;8.30;99.90
67890;DHT22;54685;52.082;5.426;2023-02-21T00:47:40;8.30;99.90
67890;DHT22;54685;52.082;5.426;2023-02-21T00:50:26;8.30;99.90
67890;DHT22;54685;52.082;5.426;2023-02-21T00:53:11;8.30;99.90
67890;DHT22;54685;52.082;5.426;2023-02-21T00:55:56;8.30;99.90
67890;DHT22;54685;52.082;5.426;2023-02-21T00:58:43;8.30;99.90
67890;DHT22;54685;52.082;5.426;2023-02-21T01:01:31;8.30;99.90
67890;DHT22;54685;52.082;5.426;2023-02-21T01:04:17;8.30;99.90
67890;DHT22;54685;52.082;5.426;2023-02-21T01:07:02;8.30;99.90
67890;DHT22;54685;52.082;5.426;2023-02-21T01:09:48;8.30;99.90
67890;DHT22;54685;52.082;5.426;2023-02-21T01:12:33;8.30;99.90
67890;DHT22;54685;52.082;5.426;2023-02-21T01:15:19;8.30;99.90
67890;DHT22;54685;52.082;5.426;2023-02-21T01:18:04;8.30;99.90
67890;DHT22;54685;52.082;5.426;2023-02-21T01:20:49;8.20;99.90
67890;DHT22;54685;52.082;5.426;2023-02-21T01:23:38;8.20;99.90
67890;DHT22;54685;52.082;5.426;2023-02-21T01:26:23;8.30;99.90
67890;DHT22;54685;52.082;5.426;2023-02-21T01:29:08;8.30;99.90
67890;DHT22;54685;52.082;5.426;2023-02-21T01:31:53;8.30;99.90
67890;DHT22;54685;52.082;5.426;2023-02-21T01:34:39;8.30;99.90
67890;DHT22;54685;52.082;5.426;2023-02-21T01:37:24;8.20;99.90
67890;DHT22;54685;52.082;5.426;2023-02-21T01:40:14;8.20;99.90
67890;DHT22;54685;52.082;5.426;2023-02-21T01:43:00;8.20;99.90
67890;DHT22;54685;52.082;5.426;2023-02-21T01:45:48;8.20;99.90
67890;DHT22;54685;52.082;5.426;2023-02-21T01:48:34;8.20;99.90
67890;DHT22;54685;52.082;5.426;2023-02-21T01:51:32;8.20;99.90
67890;DHT22;54685;52.082;5.426;2023-02-21T01:54:19;8.20;99.90
67890;DHT22;54685;52.082;5.426;2023-02-21T01:57:06;8.30;99.90
67890;DHT22;54685;52.082;5.426;2023-02-21T01:59:55;8.30;99.90
67890;DHT22;54685;52.082;5.426;2023-02-21T02:02:55;8.30;99.90
67890;DHT22;54685;52.082;5.426;2023-02-21T02:05:45;8.30;99.90
67890;DHT22;54685;52.082;5.426;2023-02-21T02:08:32;8.30;99.90
67890;DHT22;54685;52.082;5.426;2023-02-21T02:11:47;8.30;99.90
67890;DHT22;54685;52.082;5.426;2023-02-21T02:15:18;8.30;99.90
67890;DHT22;54685;52.082;5.426;2023-02-21T02:28:14;8.40;99.90
67890;DHT22;54685;52.082;5.426;2023-02-21T02:41:17;8.40;99.90
67890;DHT22;54685;52.082;5.426;2023-02-21T02:43:54;8.40;99.90
67890;DHT22;54685;52.082;5.426;2023-02-21T02:46:28;8.40;99.90
67890;DHT22;54685;52.082;5.426;2023-02-21T02:49:14;8.40;99.90
67890;DHT22;54685;52.082;5.426;2023-02-21T02:51:43;8.40;99.90
67890;DHT22;54685;52.082;5.426;2023-02-21T02:54:10;8.30;99.90
67890;DHT22;54685;52.082;5.426;2023-02-21T02:56:37;8.40;99.90
67890;DHT22;54685;52.082;5.426;2023-02-21T02:59:05;8.40;99.90
67890;DHT22;54685;52.082;5.426;2023-02-21T03:12:36;8.20;99.90
67890;DHT22;54685;52.082;5.426;2023-02-21T03:15:20;8.30;99.90
67890;DHT22;54685;52.082;5.426;2023-02-21T03:17:58;8.20;99.90
67890;DHT22;54685;52.082;5.426;2023-02-21T03:20:27;8.20;99.90
67890;DHT22;54685;52.082;5.426;2023-02-21T03:22:56;8.20;99.90
67890;DHT22;54685;52.082;5.426;2023-02-21T03:25:24;8.20;99.90
67890;DHT22;54685;52.082;5.426;2023-02-21T03:27:54;8.20;99.90
67890;DHT22;54685;52.082;5.426;2023-02-21T03:30:24;8.20;99.90
67890;DHT22;54685;52.082;5.426;2023-02-21T03:32:52;8.20;99.90
67890;DHT22;54685;52.082;5.426;2023-02-21T03:35:27;8.20;99.90
67890;DHT22;54685;52.082;5.426;2023-02-21T03:37:58;8.20;99.90
67890;DHT22;54685;52.082;5.426;2023-02-21T03:40:28;8.20;99.90
67890;DHT22;54685;52.082;5.426;2023-02-21T03:42:59;8.20;99.90
67890;DHT22;54685;52.082;5.426;2023-02-21T03:45:30;8.20;99.90
67890;DHT22;54685;52.082;5.426;2023-02-21T03:48:17;8.30;99.90
67890;DHT22;54685;52.082;5.426;2023-02-21T03:51:01;8.30;99.90
67890;DHT22;54685;52.082;5.426;2023-02-21T03:53:33;8.20;99.90
67890;DHT22;54685;52.082;5.426;2023-02-21T03:56:02;8.30;99.90
67890;DHT22;54685;52.082;5.426;2023-02-21T03:58:40;8.30;99.90
67890;DHT22;54685;52.082;5.426;2023-02-21T04:01:07;8.30;99.90
67890;DHT22;54685;52.082;5.426;2023-02-21T04:03:33;8.30;99.90
67890;DHT22;54685;52.082;5.426;2023-02-21T04:06:02;8.30;99.90
67890;DHT22;54685;52.082;5.426;2023-02-21T04:08:30;8.30;99.90
67890;DHT22;54685;52.082;5.426;2023-02-21T04:10:56;8.30;99.90
67890;DHT22;54685;52.082;5.426;2023-02-21T04:13:27;8.30;99.90
67890;DHT22;54685;52.082;5.426;2023-02-21T04:15:55;8.30;99.90
67890;DHT22;54685;52.082;5.426;2023-02-21T04:18:23;8.30;99.90
67890;DHT22;54685;52.082;5.426;2023-02-21T04:20:51;8.30;99.90
67890;DHT22;54685;52.082;5.426;2023-02-21T04:23:20;8.30;99.90
67890;DHT22;54685;52.082;5.426;2023-02-21T04:25:48;8.30;99.90
67890;DHT22;54685;52.082;5.426;2023-02-21T04:28:21;8.30;99.90
67890;DHT22;54685;52.082;5.426;2023-02-21T04:30:48;8.30;99.90
67890;DHT22;54685;52.082;5.426;2023-02-21T04:33:15;8.30;99.90
67890;DHT22;54685;52.082;5.426;2023-02-21T04:35:42;8.30;99.90
67890;DHT22;54685;52.082;5.426;2023-02-21T04:38:17;8.20;99.90
67890;DHT22;54685;52.082;5.426;2023-02-21T04:40:44;8.20;99.90
67890;DHT22;54685;52.082;5.426;2023-02-21T04:43:11;8.20;99.90
67890;DHT22;54685;52.082;5.426;2023-02-21T04:45:38;8.10;99.90
67890;DHT22;54685;52.082;5.426;2023-02-21T04:48:08;8.10;99.90
67890;DHT22;54685;52.082;5.426;2023-02-21T04:50:34;8.10;99.90
67890;DHT22;54685;52.082;5.426;2023-02-21T04:53:01;8.10;99.90
67890;DHT22;54685;52.082;5.426;2023-02-21T04:55:28;8.10;99.90
67890;DHT22;54685;52.082;5.426;2023-02-21T04:57:55;8.10;99.90
67890;DHT22;54685;52.082;5.426;2023-02-21T05:00:21;8.10;99.90
67890;DHT22;54685;52.082;5.426;2023-02-21T05:02:49;8.20;99.90
67890;DHT22;54685;52.082;5.426;2023-02-21T05:05:16;8.20;99.90
67890;DHT22;54685;52.082;5.426;2023-02-21T05:07:43;8.20;99.90
67890;DHT22;54685;52.082;5.426;2023-02-21T05:10:10;8.20;99.90
67890;DHT22;54685;52.082;5.426;2023-02-21T05:12:37;8.20;99.90
67890;DHT22;54685;52.082;5.426;2023-02-21T05:15:06;8.20;99.90
67890;DHT22;54685;52.082;5.426;2023-02-21T05:17:33;8.20;99.90
67890;DHT22;54685;52.082;5.426;2023-02-21T05:20:00;8.20;99.90
67890;DHT22;54685;52.082;5.426;2023-02-21T05:22:27;8.20;99.90
67890;DHT22;54685;52.082;5.426;2023-02-21T05:24:54;8.20;99.90
67890;DHT22;54685;52.082;5.426;2023-02-21T05:27:21;8.20;99.90
67890;DHT22;54685;52.082;5.426;2023-02-21T05:29:50;8.20;99.90
67890;DHT22;54685;52.082;5.426;2023-02-21T05:32:20;8.20;99.90
67890;DHT22;54685;52.082;5.426;2023-02-21T05:34:47;8.20;99.90
67890;DHT22;54685;52.082;5.426;2023-02-21T05:37:15;8.20;99.90
67890;DHT22;54685;52.082;5.426;2023-02-21T05:39:42;8.20;99.90
67890;DHT22;54685;52.082;5.426;2023-02-21T05:42:09;8.20;99.90
67890;DHT22;54685;52.082;5.426;2023-02-21T05:44:35;8.20;99.90
67890;DHT22;54685;52.082;5.426;2023-02-21T05:47:02;8.20;99.90
67890;DHT22;54685;52.082;5.426;2023-02-21T05:49:29;8.20;99.90
67890;DHT22;54685;52.082;5.426;2023-02-21T05:51:59;8.20;99.90
67890;DHT22;54685;52.082;5.426;2023-02-21T05:54:25;8.20;99.90
67890;DHT22;54685;52.082;5.426;2023-02-21T05:56:52;8.20;99.90
67890;DHT22;54685;52.082;5.426;2023-02-21T05:59:19;8.20;99.90
67890;DHT22;54685;52.082;5.426;2023-02-21T06:01:47;8.30;99.90
67890;DHT22;54685;52.082;5.426;2023-02-21T06:04:14;8.20;99.90
67890;DHT22;54685;52.082;5.426;2023-02-21T06:06:41;8.20;99.90
67890;DHT22;54685;52.082;5.426;2023-02-21T06:09:08;8.20;99.90
67890;DHT22;54685;52.082;5.426;2023-02-21T06:11:36;8.20;99.90
67890;DHT22;54685;52.082;5.426;2023-02-21T06:14:06;8.20;99.90
67890;DHT22;54685;52.082;5.426;2023-02-21T06:16:37;8.20;99.90
67890;DHT22;54685;52.082;5.426;2023-02-21T06:19:05;8.20;99.90
67890;DHT22;54685;52.082;5.426;2023-02-21T06:21:32;8.20;99.90
67890;DHT22;54685;52.082;5.426;2023-02-21T06:24:02;8.20;99.90
67890;DHT22;54685;52.082;5.426;2023-02-21T06:26:29;8.20;99.90
67890;DHT22;54685;52.082;5.426;2023-02-21T06:28:56;8.10;99.90
67890;DHT22;54685;52.082;5.426;2023-02-21T06:31:22;8.20;99.90
67890;DHT22;54685;52.082;5.426;2023-02-21T06:33:50;8.20;99.90
67890;DHT22;54685;52.082;5.426;2023-02-21T06:36:19;8.20;99.90
67890;DHT22;54685;52.082;5.426;2023-02-21T06:38:49;8.20;99.90
67890;DHT22;54685;52.082;5.426;2023-02-21T06:41:19;8.20;99.90
67890;DHT22;54685;52.082;5.426;2023-02-21T06:43:46;8.20;99.90
67890;DHT22;54685;52.082;5.426;2023-02-21T06:46:16;8.30;99.90
67890;DHT22;54685;52.082;5.426;2023-02-21T06:48:43;8.30;99.90
67890;DHT22;54685;52.082;5.426;2023-02-21T06:51:10;8.30;99.90
67890;DHT22;54685;52.082;5.426;2023-02-21T06:53:41;8.20;99.90
67890;DHT22;54685;52.082;5.426;2023-02-21T06:56:08;8.20;99.90
67890;DHT22;54685;52.082;5.426;2023-02-21T06:58:35;8.20;99.90
67890;DHT22;54685;52.082;5.426;2023-02-21T07:01:03;8.30;99.90
67890;DHT22;54685;52.082;5.426;2023-02-21T07:03:30;8.30;99.90
67890;DHT22;54685;52.082;5.426;2023-02-21T07:05:57;8.30;99.90
67890;DHT22;54685;52.082;5.426;2023-02-21T07:08:23;8.30;99.90
67890;DHT22;54685;52.082;5.426;2023-02-21T07:10:51;8.30;99.90
67890;DHT22;54685;52.082;5.426;2023-02-21T07:13:18;8.30;99.90
67890;DHT22;54685;52.082;5.426;2023-02-21T07:15:48;8.30;99.90
67890;DHT22;54685;52.082;5.426;2023-02-21T07:18:14;8.30;99.90
67890;DHT22;54685;52.082;5.426;2023-02-21T07:20:41;8.30;99.90
67890;DHT22;54685;52.082;5.426;2023-02-21T07:23:08;8.30;99.90
67890;DHT22;54685;52.082;5.426;2023-02-21T07:25:34;8.30;99.90
67890;DHT22;54685;52.082;5.426;2023-02-21T07:28:02;8.30;99.90
67890;DHT22;54685;52.082;5.426;2023-02-21T07:30:29;8.30;99.90
67890;DHT22;54685;52.082;5.426;2023-02-21T07:32:57;8.30;99.90
67890;DHT22;54685;52.082;5.426;2023-02-21T07:35:24;8.30;99.90
67890;DHT22;54685;52.082;5.426;2023-02-21T07:37:51;8.30;99.90
67890;DHT22;54685;52.082;5.426;2023-02-21T07:40:18;8.30;99.90
67890;DHT22;54685;52.082;5.426;2023-02-21T07:42:45;8.30;99.90
67890;DHT22;54685;52.082;5.426;2023-02-21T07:45:14;8.30;99.90
67890;DHT22;54685;52.082;5.426;2023-02-21T07:47:44;8.30;99.90
67890;DHT22;54685;52.082;5.426;2023-02-21T07:50:15;8.30;99.90
67890;DHT22;54685;52.082;5.426;2023-02-21T07:52:42;8.30;99.90
67890;DHT22;54685;52.082;5.426;2023-02-21T07:55:10;8.30;99.90
67890;DHT22;54685;52.082;5.426;2023-02-21T07:57:39;8.30;99.90
67890;DHT22;54685;52.082;5.426;2023-02-21T08:00:06;8.30;99.90
67890;DHT22;54685;52.082;5.426;2023-02-21T08:02:38;8.40;99.90
67890;DHT22;54685;52.082;5.426;2023-02-21T08:05:07;8.30;99.90
67890;DHT22;54685;52.082;5.426;2023-02-21T08:07:34;8.30;99.90
67890;DHT22;54685;52.082;5.426;2023-02-21T08:10:01;8.30;99.90
67890;DHT22;54685;52.082;5.426;2023-02-21T08:12:27;8.30;99.90
67890;DHT22;54685;52.082;5.426;2023-02-21T08:14:54;8.30;99.90
67890;DHT22;54685;52.082;5.426;2023-02-21T08:17:24;8.30;99.90
67890;DHT22;54685;52.082;5.426;2023-02-21T08:19:51;8.40;99.90
67890;DHT22;54685;52.082;5.426;2023-02-21T08:22:18;8.30;99.90
67890;DHT22;54685;52.082;5.426;2023-02-21T08:24:45;8.40;99.90
67890;DHT22;54685;52.082;5.426;2023-02-21T08:27:14;8.40;99.90
67890;DHT22;54685;52.082;5.426;2023-02-21T08:29:41;8.40;99.90
67890;DHT22;54685;52.082;5.426;2023-02-21T08:32:08;8.30;99.90
67890;DHT22;54685;52.082;5.426;2023-02-21T08:34:35;8.30;99.90
67890;DHT22;54685;52.082;5.426;2023-02-21T08:37:04;8.30;99.90
67890;DHT22;54685;52.082;5.426;2023-02-21T08:39:42;8.40;99.90
67890;DHT22;54685;52.082;5.426;2023-02-21T08:42:10;8.40;99.90
67890;DHT22;54685;52.082;5.426;2023-02-21T08:44:37;8.40;99.90
67890;DHT22;54685;52.082;5.426;2023-02-21T08:47:04;8.40;99.90
67890;DHT22;54685;52.082;5.426;2023-02-21T08:49:30;8.40;99.90
67890;DHT22;54685;52.082;5.426;2023-02-21T08:52:00;8.50;99.90
67890;DHT22;54685;52.082;5.426;2023-02-21T08:54:29;8.40;99.90
67890;DHT22;54685;52.082;5.426;2023-02-21T08:56:56;8.40;99.90
67890;DHT22;54685;52.082;5.426;2023-02-21T08:59:24;8.50;99.90
67890;DHT22;54685;52.082;5.426;2023-02-21T09:01:51;8.50;99.90
67890;DHT22;54685;52.082;5.426;2023-02-21T09:04:18;8.50;99.90
67890;DHT22;54685;52.082;5.426;2023-02-21T09:06:44;8.50;99.90
67890;DHT22;54685;52.082;5.426;2023-02-21T09:09:11;8.50;99.90
67890;DHT22;54685;52.082;5.426;2023-02-21T09:11:38;8.50;99.90
67890;DHT22;54685;52.082;5.426;2023-02-21T09:14:05;8.50;99.90
67890;DHT22;54685;52.082;5.426;2023-02-21T09:16:35;8.50;99.90
67890;DHT22;54685;52.082;5.426;2023-02-21T09:19:02;8.60;99.90
67890;DHT22;54685;52.082;5.426;2023-02-21T09:21:32;8.60;99.90
67890;DHT22;54685;52.082;5.426;2023-02-21T09:23:59;8.60;99.90
67890;DHT22;54685;52.082;5.426;2023-02-21T09:26:28;8.50;99.90
67890;DHT22;54685;52.082;5.426;2023-02-21T09:28:58;8.60;99.90
67890;DHT22;54685;52.082;5.426;2023-02-21T09:31:25;8.50;99.90
67890;DHT22;54685;52.082;5.426;2023-02-21T09:33:52;8.50;99.90
67890;DHT22;54685;52.082;5.426;2023-02-21T09:36:19;8.60;99.90
67890;DHT22;54685;52.082;5.426;2023-02-21T09:38:50;8.60;99.90
67890;DHT22;54685;52.082;5.426;2023-02-21T09:41:18;8.60;99.90
67890;DHT22;54685;52.082;5.426;2023-02-21T09:43:48;8.60;99.90
67890;DHT22;54685;52.082;5.426;2023-02-21T09:46:57;8.60;99.90
67890;DHT22;54685;52.082;5.426;2023-02-21T09:49:30;8.70;99.90
67890;DHT22;54685;52.082;5.426;2023-02-21T09:52:00;8.70;99.90
67890;DHT22;54685;52.082;5.426;2023-02-21T09:54:33;8.60;99.90
67890;DHT22;54685;52.082;5.426;2023-02-21T09:57:04;8.70;99.90
67890;DHT22;54685;52.082;5.426;2023-02-21T09:59:31;8.70;99.90
67890;DHT22;54685;52.082;5.426;2023-02-21T10:07:28;8.70;99.90
67890;DHT22;54685;52.082;5.426;2023-02-21T10:12:44;8.80;99.90
67890;DHT22;54685;52.082;5.426;2023-02-21T10:18:15;8.80;99.90
67890;DHT22;54685;52.082;5.426;2023-02-21T10:20:49;8.70;99.90
67890;DHT22;54685;52.082;5.426;2023-02-21T10:23:42;8.80;99.90
67890;DHT22;54685;52.082;5.426;2023-02-21T10:26:11;8.80;99.90
67890;DHT22;54685;52.082;5.426;2023-02-21T10:28:41;8.80;99.90
67890;DHT22;54685;52.082;5.426;2023-02-21T10:31:25;8.80;99.90
67890;DHT22;54685;52.082;5.426;2023-02-21T10:33:55;8.80;99.90
67890;DHT22;54685;52.082;5.426;2023-02-21T10:36:22;8.80;99.90
67890;DHT22;54685;52.082;5.426;2023-02-21T10:38:57;8.80;99.90
67890;DHT22;54685;52.082;5.426;2023-02-21T10:41:28;8.80;99.90
67890;DHT22;54685;52.082;5.426;2023-02-21T10:44:06;8.80;99.90
67890;DHT22;54685;52.082;5.426;2023-02-21T10:46:41;8.90;99.90
67890;DHT22;54685;52.082;5.426;2023-02-21T10:49:41;8.80;99.90
67890;DHT22;54685;52.082;5.426;2023-02-21T10:52:14;8.90;99.90
67890;DHT22;54685;52.082;5.426;2023-02-21T10:57:27;8.90;99.90
67890;DHT22;54685;52.082;5.426;2023-02-21T10:59:56;8.90;99.90
67890;DHT22;54685;52.082;5.426;2023-02-21T11:02:28;8.90;99.90
67890;DHT22;54685;52.082;5.426;2023-02-21T11:05:15;9.00;99.90
67890;DHT22;54685;52.082;5.426;2023-02-21T11:08:02;9.00;99.90
67890;DHT22;54685;52.082;5.426;2023-02-21T11:10:39;9.00;99.90
67890;DHT22;54685;52.082;5.426;2023-02-21T11:13:22;9.00;99.90
67890;DHT22;54685;52.082;5.426;2023-02-21T11:16:15;9.00;99.90
67890;DHT22;54685;52.082;5.426;2023-02-21T11:18:42;9.00;99.90
67890;DHT22;54685;52.082;5.426;2023-02-21T11:21:14;9.00;99.90
67890;DHT22;54685;52.082;5.426;2023-02-21T11:23:54;9.00;99.90
67890;DHT22;54685;52.082;5.426;2023-02-21T11:26:43;9.00;99.90
67890;DHT22;54685;52.082;5.426;2023-02-21T11:29:14;9.00;99.90
67890;DHT22;54685;52.082;5.426;2023-02-21T11:31:42;9.00;99.90
67890;DHT22;54685;52.082;5.426;2023-02-21T11:34:12;9.00;99.90
67890;DHT22;54685;52.082;5.426;2023-02-21T11:36:44;9.00;99.90
67890;DHT22;54685;52.082;5.426;2023-02-21T11:39:18;9.00;99.90
67890;DHT22;54685;52.082;5.426;2023-02-21T11:44:32;9.00;99.90
67890;DHT22;54685;52.082;5.426;2023-02-21T11:47:21;9.00;99.90
67890;DHT22;54685;52.082;5.426;2023-02-21T11:50:09;9.00;99.90
67890;DHT22;54685;52.082;5.426;2023-02-21T11:52:53;8.90;99.90
67890;DHT22;54685;52.082;5.426;2023-02-21T11:55:23;8.90;99.90
67890;DHT22;54685;52.082;5.426;2023-02-21T12:01:10;9.00;99.90
67890;DHT22;54685;52.082;5.426;2023-02-21T12:04:07;9.00;99.90
67890;DHT22;54685;52.082;5.426;2023-02-21T12:09:11;9.00;99.90
67890;DHT22;54685;52.082;5.426;2023-02-21T12:20:00;9.00;99.90
67890;DHT22;54685;52.082;5.426;2023-02-21T12:25:16;9.00;99.90
67890;DHT22;54685;52.082;5.426;2023-02-21T12:39:15;9.00;99.90
67890;DHT22;54685;52.082;5.426;2023-02-21T12:42:00;9.00;99.90
67890;DHT22;54685;52.082;5.426;2023-02-21T12:44:50;9.00;99.90
67890;DHT22;54685;52.082;5.426;2023-02-21T12:47:33;9.00;99.90
67890;DHT22;54685;52.082;5.426;2023-02-21T12:50:13;9.00;99.90
67890;DHT22;54685;52.082;5.426;2023-02-21T12:52:59;9.00;99.90
67890;DHT22;54685;52.082;5.426;2023-02-21T13:02:09;9.10;99.90
67890;DHT22;54685;52.082;5.426;2023-02-21T13:04:47;9.10;99.90
67890;DHT22;54685;52.082;5.426;2023-02-21T13:10:17;9.10;99.90
67890;DHT22;54685;52.082;5.426;2023-02-21T13:12:54;9.10;99.90
67890;DHT22;54685;52.082;5.426;2023-02-21T13:15:26;9.10;99.90
67890;DHT22;54685;52.082;5.426;2023-02-21T13:18:08;9.10;99.90
67890;DHT22;54685;52.082;5.426;2023-02-21T13:20:52;9.10;99.90
67890;DHT22;54685;52.082;5.426;2023-02-21T13:23:21;9.10;99.90
67890;DHT22;54685;52.082;5.426;2023-02-21T13:28:57;9.20;99.90
67890;DHT22;54685;52.082;5.426;2023-02-21T13:31:25;9.20;99.90
67890;DHT22;54685;52.082;5.426;2023-02-21T13:33:59;9.10;99.90
67890;DHT22;54685;52.082;5.426;2023-02-21T13:41:34;9.20;99.90
67890;DHT22;54685;52.082;5.426;2023-02-21T13:44:08;9.20;99.90
67890;DHT22;54685;52.082;5.426;2023-02-21T13:57:35;9.20;99.90
67890;DHT22;54685;52.082;5.426;2023-02-21T14:03:01;9.20;99.90
67890;DHT22;54685;52.082;5.426;2023-02-21T14:08:25;9.20;99.90
67890;DHT22;54685;52.082;5.426;2023-02-21T14:13:34;9.20;99.90
67890;DHT22;54685;52.082;5.426;2023-02-21T14:18:48;9.20;99.90
67890;DHT22;54685;52.082;5.426;2023-02-21T14:21:36;9.20;99.90
67890;DHT22;54685;52.082;5.426;2023-02-21T14:37:35;9.20;99.90
67890;DHT22;54685;52.082;5.426;2023-02-21T14:45:48;9.10;99.90
67890;DHT22;54685;52.082;5.426;2023-02-21T14:54:21;9.10;99.90
67890;DHT22;54685;52.082;5.426;2023-02-21T15:02:40;9.10;99.90
67890;DHT22;54685;52.082;5.426;2023-02-21T15:05:32;9.10;99.90
67890;DHT22;54685;52.082;5.426;2023-02-21T15:08:04;9.10;99.90
67890;DHT22;54685;52.082;5.426;2023-02-21T15:10:41;9.10;99.90
67890;DHT22;54685;52.082;5.426;2023-02-21T15:15:47;9.10;99.90
67890;DHT22;54685;52.082;5.426;2023-02-21T15:18:25;9.20;99.90
67890;DHT22;54685;52.082;5.426;2023-02-21T15:23:30;9.10;99.90
67890;DHT22;54685;52.082;5.426;2023-02-21T15:26:00;9.10;99.90
67890;DHT22;54685;52.082;5.426;2023-02-21T15:28:32;9.10;99.90
67890;DHT22;54685;52.082;5.426;2023-02-21T15:31:02;9.10;99.90
67890;DHT22;54685;52.082;5.426;2023-02-21T15:33:38;9.10;99.90
67890;DHT22;54685;52.082;5.426;2023-02-21T15:36:17;9.10;99.90
67890;DHT22;54685;52.082;5.426;2023-02-21T15:39:10;9.10;99.90
67890;DHT22;54685;52.082;5.426;2023-02-21T15:41:44;9.10;99.90
67890;DHT22;54685;52.082;5.426;2023-02-21T15:44:28;9.10;99.90
67890;DHT22;54685;52.082;5.426;2023-02-21T15:47:00;9.10;99.90
67890;DHT22;54685;52.082;5.426;2023-02-21T15:49:32;9.10;99.90
67890;DHT22;54685;52.082;5.426;2023-02-21T15:52:01;9.10;99.90
67890;DHT22;54685;52.082;5.426;2023-02-21T15:54:33;9.10;99.90
67890;DHT22;54685;52.082;5.426;2023-02-21T15:59:39;9.10;99.90
67890;DHT22;54685;52.082;5.426;2023-02-21T16:02:20;9.10;99.90
67890;DHT22;54685;52.082;5.426;2023-02-21T16:04:50;9.10;99.90
67890;DHT22;54685;52.082;5.426;2023-02-21T16:07:28;9.10;99.90
67890;DHT22;54685;52.082;5.426;2023-02-21T16:10:05;9.10;99.90
67890;DHT22;54685;52.082;5.426;2023-02-21T16:12:42;9.10;99.90
67890;DHT22;54685;52.082;5.426;2023-02-21T16:15:51;9.10;99.90
67890;DHT22;54685;52.082;5.426;2023-02-21T16:18:17;9.00;99.90
67890;DHT22;54685;52.082;5.426;2023-02-21T16:20:44;9.00;99.90
67890;DHT22;54685;52.082;5.426;2023-02-21T16:23:33;9.00;99.90
67890;DHT22;54685;52.082;5.426;2023-02-21T16:28:39;9.00;99.90
67890;DHT22;54685;52.082;5.426;2023-02-21T16:31:08;9.00;99.90
67890;DHT22;54685;52.082;5.426;2023-02-21T16:33:38;9.00;99.90
67890;DHT22;54685;52.082;5.426;2023-02-21T16:36:08;9.00;99.90
67890;DHT22;54685;52.082;5.426;2023-02-21T16:38:35;9.00;99.90
67890;DHT22;54685;52.082;5.426;2023-02-21T16:41:02;9.00;99.90
67890;DHT22;54685;52.082;5.426;2023-02-21T16:43:29;8.90;99.90
67890;DHT22;54685;52.082;5.426;2023-02-21T16:45:57;8.90;99.90
67890;DHT22;54685;52.082;5.426;2023-02-21T16:48:29;8.90;99.90
67890;DHT22;54685;52.082;5.426;2023-02-21T16:51:09;8.80;99.90
67890;DHT22;54685;52.082;5.426;2023-02-21T16:53:39;8.90;99.90
67890;DHT22;54685;52.082;5.426;2023-02-21T16:56:09;8.80;99.90
67890;DHT22;54685;52.082;5.426;2023-02-21T16:58:38;8.80;99.90
67890;DHT22;54685;52.082;5.426;2023-02-21T17:01:13;8.80;99.90
67890;DHT22;54685;52.082;5.426;2023-02-21T17:03:41;8.80;99.90
67890;DHT22;54685;52.082;5.426;2023-02-21T17:06:16;8.80;99.90
67890;DHT22;54685;52.082;5.426;2023-02-21T17:08:44;8.80;99.90
67890;DHT22;54685;52.082;5.426;2023-02-21T17:11:11;8.80;99.90
67890;DHT22;54685;52.082;5.426;2023-02-21T17:13:38;8.80;99.90
67890;DHT22;54685;52.082;5.426;2023-02-21T17:16:05;8.80;99.90
67890;DHT22;54685;52.082;5.426;2023-02-21T17:18:32;8.80;99.90
67890;DHT22;54685;52.082;5.426;2023-02-21T17:20:59;8.80;99.90
67890;DHT22;54685;52.082;5.426;2023-02-21T17:23:28;8.80;99.90
67890;DHT22;54685;52.082;5.426;2023-02-21T17:25:55;8.70;99.90
67890;DHT22;54685;52.082;5.426;2023-02-21T17:28:22;8.70;99.90
67890;DHT22;54685;52.082;5.426;2023-02-21T17:30:49;8.70;99.90
67890;DHT22;54685;52.082;5.426;2023-02-21T17:33:16;8.70;99.90
67890;DHT22;54685;52.082;5.426;2023-02-21T17:35:43;8.70;99.90
67890;DHT22;54685;52.082;5.426;2023-02-21T17:38:09;8.60;99.90
67890;DHT22;54685;52.082;5.426;2023-02-21T17:40:36;8.60;99.90
67890;DHT22;54685;52.082;5.426;2023-02-21T17:43:03;8.60;99.90
67890;DHT22;54685;52.082;5.426;2023-02-21T17:45:34;8.60;99.90
67890;DHT22;54685;52.082;5.426;2023-02-21T17:48:04;8.60;99.90
67890;DHT22;54685;52.082;5.426;2023-02-21T17:50:31;8.60;99.90
67890;DHT22;54685;52.082;5.426;2023-02-21T17:52:58;8.60;99.90
67890;DHT22;54685;52.082;5.426;2023-02-21T17:55:25;8.60;99.90
67890;DHT22;54685;52.082;5.426;2023-02-21T17:57:52;8.60;99.90
67890;DHT22;54685;52.082;5.426;2023-02-21T18:00:22;8.60;99.90
67890;DHT22;54685;52.082;5.426;2023-02-21T18:02:53;8.60;99.90
67890;DHT22;54685;52.082;5.426;2023-02-21T18:05:20;8.60;99.90
67890;DHT22;54685;52.082;5.426;2023-02-21T18:07:52;8.60;99.90
67890;DHT22;54685;52.082;5.426;2023-02-21T18:10:21;8.60;99.90
67890;DHT22;54685;52.082;5.426;2023-02-21T18:12:47;8.60;99.90
67890;DHT22;54685;52.082;5.426;2023-02-21T18:15:19;8.50;99.90
67890;DHT22;54685;52.082;5.426;2023-02-21T18:17:46;8.50;99.90
67890;DHT22;54685;52.082;5.426;2023-02-21T18:20:14;8.50;99.90
67890;DHT22;54685;52.082;5.426;2023-02-21T18:22:42;8.50;99.90
67890;DHT22;54685;52.082;5.426;2023-02-21T18:25:09;8.50;99.90
67890;DHT22;54685;52.082;5.426;2023-02-21T18:27:36;8.50;99.90
67890;DHT22;54685;52.082;5.426;2023-02-21T18:30:06;8.40;99.90
67890;DHT22;54685;52.082;5.426;2023-02-21T18:32:34;8.40;99.90
67890;DHT22;54685;52.082;5.426;2023-02-21T18:35:01;8.40;99.90
67890;DHT22;54685;52.082;5.426;2023-02-21T18:37:28;8.40;99.90
67890;DHT22;54685;52.082;5.426;2023-02-21T18:39:55;8.40;99.90
67890;DHT22;54685;52.082;5.426;2023-02-21T18:42:22;8.40;99.90
67890;DHT22;54685;52.082;5.426;2023-02-21T18:44:50;8.40;99.90
67890;DHT22;54685;52.082;5.426;2023-02-21T18:47:17;8.40;99.90
67890;DHT22;54685;52.082;5.426;2023-02-21T18:49:46;8.40;99.90
67890;DHT22;54685;52.082;5.426;2023-02-21T18:52:14;8.40;99.90
67890;DHT22;54685;52.082;5.426;2023-02-21T18:54:45;8.40;99.90
67890;DHT22;54685;52.082;5.426;2023-02-21T18:57:12;8.30;99.90
67890;DHT22;54685;52.082;5.426;2023-02-21T18:59:39;8.40;99.90